createdAt,value
2019-02-10T00:02:00.587Z,6.10
2019-02-10T00:04:29.794Z,6.10
2019-02-10T00:06:58.979Z,6.33
2019-02-10T00:09:28.532Z,5.33
2019-02-10T00:11:57.762Z,5.73
2019-02-10T00:14:26.953Z,5.50
2019-02-10T00:16:57.013Z,5.73
2019-02-10T00:19:27.302Z,5.40
2019-02-10T00:21:56.493Z,5.33
2019-02-10T00:24:25.710Z,5.87
2019-02-10T00:26:54.918Z,5.33
2019-02-10T00:29:24.102Z,5.50
2019-02-10T00:31:53.261Z,5.63
2019-02-10T00:34:22.789Z,5.70
2019-02-10T00:36:51.903Z,5.20
2019-02-10T00:39:21.107Z,5.47
2019-02-10T00:41:50.411Z,5.10
2019-02-10T00:44:19.566Z,5.00
2019-02-10T00:46:48.736Z,4.73
2019-02-10T00:49:18.246Z,4.93
2019-02-10T00:51:47.678Z,4.50
2019-02-10T00:54:16.894Z,5.07
2019-02-10T00:56:46.105Z,4.70
2019-02-10T00:59:15.313Z,4.43
2019-02-10T01:01:44.528Z,4.17
2019-02-10T01:04:13.733Z,4.63
2019-02-10T01:06:42.931Z,4.13
2019-02-10T01:09:13.157Z,4.17
2019-02-10T01:11:42.353Z,4.60
2019-02-10T01:14:11.575Z,4.00
2019-02-10T01:16:40.785Z,4.47
2019-02-10T01:19:13.287Z,3.83
2019-02-10T01:21:44.215Z,4.23
2019-02-10T01:24:13.472Z,3.83
2019-02-10T01:26:42.701Z,3.87
2019-02-10T01:29:11.903Z,4.13
2019-02-10T01:31:41.130Z,4.40
2019-02-10T01:34:10.354Z,4.93
2019-02-10T01:36:39.584Z,3.87
2019-02-10T01:39:18.001Z,4.07
2019-02-10T01:41:47.947Z,4.00
2019-02-10T01:44:17.125Z,4.20
2019-02-10T01:46:47.642Z,3.50
2019-02-10T01:49:16.855Z,3.80
2019-02-10T01:51:46.462Z,4.30
2019-02-10T01:54:18.610Z,4.27
2019-02-10T01:56:48.161Z,4.07
2019-02-10T01:59:17.425Z,4.13
2019-02-10T02:01:46.639Z,3.80
2019-02-10T02:04:16.188Z,3.53
2019-02-10T02:06:45.378Z,3.60
2019-02-10T02:09:15.521Z,4.03
2019-02-10T02:11:44.715Z,4.07
2019-02-10T02:14:13.966Z,3.67
2019-02-10T02:16:43.158Z,3.70
2019-02-10T02:19:12.397Z,4.00
2019-02-10T02:21:41.649Z,3.37
2019-02-10T02:24:10.761Z,3.30
2019-02-10T02:26:39.977Z,4.00
2019-02-10T02:29:09.197Z,3.50
2019-02-10T02:31:38.422Z,3.63
2019-02-10T02:34:07.934Z,3.77
2019-02-10T02:36:42.245Z,3.20
2019-02-10T02:39:11.537Z,3.43
2019-02-10T02:41:40.787Z,3.40
2019-02-10T02:44:10.004Z,3.33
2019-02-10T02:46:39.206Z,3.93
2019-02-10T02:49:08.450Z,3.47
2019-02-10T02:51:37.624Z,3.47
2019-02-10T02:54:07.143Z,4.10
2019-02-10T02:56:36.358Z,3.33
2019-02-10T02:59:05.574Z,3.30
2019-02-10T03:01:34.746Z,3.37
2019-02-10T03:04:03.936Z,2.90
2019-02-10T03:06:48.998Z,3.23
2019-02-10T03:09:18.177Z,2.77
2019-02-10T03:11:47.678Z,3.10
2019-02-10T03:14:16.867Z,3.10
2019-02-10T03:16:46.090Z,3.60
2019-02-10T03:19:15.293Z,2.60
2019-02-10T03:21:44.494Z,3.00
2019-02-10T03:24:13.702Z,3.20
2019-02-10T03:26:42.941Z,3.07
2019-02-10T03:29:12.115Z,2.97
2019-02-10T03:31:41.328Z,3.43
2019-02-10T03:34:10.553Z,2.90
2019-02-10T03:36:39.739Z,2.83
2019-02-10T03:39:08.921Z,2.90
2019-02-10T03:41:38.160Z,3.00
2019-02-10T03:44:07.699Z,2.93
2019-02-10T03:46:36.895Z,2.90
2019-02-10T03:49:06.063Z,2.80
2019-02-10T03:51:35.246Z,2.87
2019-02-10T03:54:04.482Z,3.20
2019-02-10T03:56:33.734Z,3.30
2019-02-10T03:59:02.978Z,2.93
2019-02-10T04:01:32.165Z,2.83
2019-02-10T04:04:01.301Z,2.97
2019-02-10T04:06:30.518Z,2.70
2019-02-10T04:08:59.649Z,2.67
2019-02-10T04:11:28.761Z,3.07
2019-02-10T04:13:57.970Z,2.80
2019-02-10T04:16:27.158Z,2.60
2019-02-10T04:18:56.705Z,2.40
2019-02-10T04:21:26.178Z,2.87
2019-02-10T04:23:55.746Z,2.50
2019-02-10T04:26:24.921Z,2.80
2019-02-10T04:28:54.121Z,2.73
2019-02-10T04:31:23.238Z,2.70
2019-02-10T04:33:52.474Z,2.53
2019-02-10T04:36:21.684Z,2.63
2019-02-10T04:38:50.881Z,2.50
2019-02-10T04:41:20.387Z,2.60
2019-02-10T04:43:49.537Z,2.80
2019-02-10T04:46:18.759Z,2.60
2019-02-10T04:48:48.365Z,2.47
2019-02-10T04:51:17.865Z,2.50
2019-02-10T04:53:47.030Z,2.70
2019-02-10T04:56:17.832Z,2.60
2019-02-10T04:58:47.068Z,2.80
2019-02-10T05:01:16.291Z,2.27
2019-02-10T05:03:45.504Z,2.50
2019-02-10T05:06:14.673Z,2.60
2019-02-10T05:08:43.859Z,2.70
2019-02-10T05:11:13.075Z,2.57
2019-02-10T05:13:42.300Z,2.23
2019-02-10T05:16:11.509Z,2.50
2019-02-10T05:18:40.715Z,2.27
2019-02-10T05:21:09.935Z,2.30
2019-02-10T05:23:39.136Z,2.23
2019-02-10T05:26:08.411Z,2.50
2019-02-10T05:28:37.600Z,2.50
2019-02-10T05:31:06.851Z,2.40
2019-02-10T05:33:36.058Z,2.30
2019-02-10T05:36:05.194Z,2.30
2019-02-10T05:38:34.378Z,2.27
2019-02-10T05:41:03.579Z,2.10
2019-02-10T05:43:32.798Z,2.03
2019-02-10T05:46:01.999Z,2.50
2019-02-10T05:48:31.172Z,2.50
2019-02-10T05:51:00.389Z,2.60
2019-02-10T05:53:29.591Z,2.13
2019-02-10T05:55:58.825Z,2.07
2019-02-10T05:58:28.156Z,2.10
2019-02-10T06:01:34.420Z,2.10
2019-02-10T06:04:03.574Z,2.23
2019-02-10T06:06:32.805Z,2.43
2019-02-10T06:09:01.995Z,2.30
2019-02-10T06:11:31.173Z,2.40
2019-02-10T06:14:00.390Z,2.37
2019-02-10T06:16:29.580Z,2.50
2019-02-10T06:18:58.817Z,2.13
2019-02-10T06:21:28.002Z,2.30
2019-02-10T06:23:57.258Z,2.10
2019-02-10T06:26:26.483Z,2.20
2019-02-10T06:28:55.659Z,2.30
2019-02-10T06:31:25.157Z,2.17
2019-02-10T06:33:54.350Z,2.10
2019-02-10T06:36:23.877Z,1.80
2019-02-10T06:38:53.090Z,2.07
2019-02-10T06:41:22.297Z,2.00
2019-02-10T06:43:51.543Z,2.57
2019-02-10T06:46:20.762Z,1.97
2019-02-10T06:48:49.969Z,2.43
2019-02-10T06:51:19.102Z,1.77
2019-02-10T06:53:48.314Z,2.33
2019-02-10T06:56:17.525Z,2.17
2019-02-10T06:58:48.235Z,1.83
2019-02-10T07:01:25.634Z,1.80
2019-02-10T07:04:06.613Z,1.60
2019-02-10T07:06:35.918Z,1.77
2019-02-10T07:09:06.351Z,1.77
2019-02-10T07:11:37.563Z,1.80
2019-02-10T07:14:37.616Z,1.70
2019-02-10T07:17:51.002Z,1.70
2019-02-10T07:20:40.911Z,2.07
2019-02-10T07:23:41.653Z,1.60
2019-02-10T07:26:15.904Z,1.70
2019-02-10T07:29:02.182Z,1.67
2019-02-10T07:31:47.798Z,1.50
2019-02-10T07:34:49.716Z,1.80
2019-02-10T07:37:55.229Z,1.77
2019-02-10T07:40:52.957Z,1.90
2019-02-10T07:44:14.302Z,2.10
2019-02-10T07:47:01.855Z,1.97
2019-02-10T07:49:46.009Z,2.10
2019-02-10T07:52:37.277Z,2.13
2019-02-10T07:55:47.689Z,2.00
2019-02-10T07:58:50.441Z,2.47
2019-02-10T08:01:28.579Z,2.23
2019-02-10T08:04:35.025Z,2.40
2019-02-10T08:07:39.662Z,2.53
2019-02-10T08:10:26.675Z,2.60
2019-02-10T08:13:21.662Z,2.13
2019-02-10T08:16:14.602Z,2.53
2019-02-10T08:19:22.726Z,2.53
2019-02-10T08:22:39.516Z,3.30
2019-02-10T08:25:44.991Z,3.17
2019-02-10T08:28:58.401Z,3.23
2019-02-10T08:32:10.193Z,2.70
2019-02-10T08:34:47.126Z,3.07
2019-02-10T08:37:33.121Z,3.67
2019-02-10T08:40:47.935Z,4.07
2019-02-10T08:43:49.840Z,3.50
2019-02-10T08:47:09.572Z,3.83
2019-02-10T08:50:12.874Z,3.60
2019-02-10T08:52:58.645Z,4.10
2019-02-10T08:55:27.841Z,3.87
2019-02-10T08:57:57.037Z,3.50
2019-02-10T09:00:26.221Z,4.03
2019-02-10T09:02:55.431Z,4.37
2019-02-10T09:05:24.626Z,4.87
2019-02-10T09:07:53.879Z,4.43
2019-02-10T09:10:23.049Z,4.40
2019-02-10T09:12:52.226Z,4.90
2019-02-10T09:15:21.429Z,4.63
2019-02-10T09:17:50.786Z,4.47
2019-02-10T09:20:20.583Z,4.73
2019-02-10T09:22:49.821Z,5.00
2019-02-10T09:25:18.999Z,4.70
2019-02-10T09:27:48.092Z,4.70
2019-02-10T09:30:17.326Z,4.73
2019-02-10T09:32:46.521Z,4.10
2019-02-10T09:35:15.706Z,4.73
2019-02-10T09:37:44.934Z,5.17
2019-02-10T09:40:14.081Z,4.00
2019-02-10T09:42:44.090Z,4.70
2019-02-10T09:45:13.549Z,4.53
2019-02-10T09:47:42.678Z,5.17
2019-02-10T09:50:14.683Z,6.90
2019-02-10T09:52:43.940Z,5.77
2019-02-10T09:55:13.133Z,6.63
2019-02-10T09:57:42.638Z,6.17
2019-02-10T10:00:13.710Z,5.23
2019-02-10T10:02:42.911Z,5.50
2019-02-10T10:05:12.885Z,4.93
2019-02-10T10:07:42.077Z,5.50
2019-02-10T10:10:12.364Z,6.90
2019-02-10T10:12:41.580Z,6.63
2019-02-10T10:15:13.632Z,7.53
2019-02-10T10:17:42.901Z,7.10
2019-02-10T10:20:13.848Z,6.30
2019-02-10T10:22:43.072Z,7.07
2019-02-10T10:25:12.314Z,6.73
2019-02-10T10:27:41.535Z,7.13
2019-02-10T10:30:13.466Z,11.60
2019-02-10T10:32:42.710Z,8.07
2019-02-10T10:35:11.969Z,7.23
2019-02-10T10:37:41.201Z,7.43
2019-02-10T10:40:10.367Z,8.27
2019-02-10T10:42:39.510Z,7.67
2019-02-10T10:45:08.950Z,7.13
2019-02-10T10:47:38.158Z,6.53
2019-02-10T10:50:08.181Z,6.67
2019-02-10T10:52:37.418Z,7.00
2019-02-10T10:55:06.622Z,6.07
2019-02-10T10:57:35.895Z,6.37
2019-02-10T11:00:05.209Z,6.77
2019-02-10T11:02:34.446Z,6.43
2019-02-10T11:05:04.349Z,6.87
2019-02-10T11:07:33.543Z,6.63
2019-02-10T11:10:02.761Z,6.70
2019-02-10T11:12:31.976Z,6.30
2019-02-10T11:15:01.199Z,6.67
2019-02-10T11:17:30.432Z,6.77
2019-02-10T11:19:59.621Z,6.80
2019-02-10T11:22:28.858Z,7.20
2019-02-10T11:24:58.116Z,6.77
2019-02-10T11:27:27.342Z,6.87
2019-02-10T11:29:56.573Z,6.13
2019-02-10T11:32:25.779Z,7.47
2019-02-10T11:34:55.038Z,6.53
2019-02-10T11:37:26.837Z,6.00
2019-02-10T11:39:55.183Z,5.90
2019-02-10T11:42:24.426Z,6.23
2019-02-10T11:44:53.647Z,6.33
2019-02-10T11:47:22.862Z,6.20
2019-02-10T11:49:52.390Z,5.47
2019-02-10T11:52:21.609Z,6.00
2019-02-10T11:54:50.790Z,6.83
2019-02-10T11:57:20.041Z,6.00
2019-02-10T11:59:49.240Z,5.90
2019-02-10T12:02:18.505Z,6.10
2019-02-10T12:04:47.842Z,6.27
2019-02-10T12:07:17.066Z,5.83
2019-02-10T12:09:51.557Z,5.30
2019-02-10T12:12:17.154Z,6.07
2019-02-10T12:14:46.455Z,5.57
2019-02-10T12:17:15.665Z,5.87
2019-02-10T12:19:44.940Z,5.93
2019-02-10T12:22:14.261Z,5.63
2019-02-10T12:24:43.499Z,5.43
2019-02-10T12:27:12.995Z,5.60
2019-02-10T12:29:42.235Z,5.53
2019-02-10T12:32:11.426Z,4.83
2019-02-10T12:34:40.602Z,5.10
2019-02-10T12:37:09.902Z,5.43
2019-02-10T12:39:39.134Z,5.10
2019-02-10T12:42:08.366Z,5.63
2019-02-10T12:44:37.665Z,5.40
2019-02-10T12:47:06.962Z,5.00
2019-02-10T12:49:36.279Z,5.37
2019-02-10T12:52:05.569Z,5.20
2019-02-10T12:54:35.455Z,5.03
2019-02-10T12:57:04.731Z,4.80
2019-02-10T12:59:34.036Z,4.50
2019-02-10T13:02:03.290Z,4.13
2019-02-10T13:04:32.590Z,4.40
2019-02-10T13:07:02.191Z,4.73
2019-02-10T13:09:31.551Z,4.40
2019-02-10T13:12:00.887Z,4.00
2019-02-10T13:14:30.490Z,4.57
2019-02-10T13:16:59.772Z,4.30
2019-02-10T13:19:29.004Z,3.60
2019-02-10T13:21:58.334Z,4.43
2019-02-10T13:24:27.633Z,4.03
2019-02-10T13:26:57.057Z,4.10
2019-02-10T13:29:26.450Z,3.73
2019-02-10T13:31:55.731Z,3.87
2019-02-10T13:34:25.723Z,4.00
2019-02-10T13:36:55.086Z,3.57
2019-02-10T13:39:24.348Z,4.13
2019-02-10T13:41:52.201Z,3.67
2019-02-10T13:44:21.867Z,3.80
2019-02-10T13:46:51.078Z,3.77
2019-02-10T13:49:20.245Z,3.60
2019-02-10T13:51:50.043Z,3.27
2019-02-10T13:54:19.717Z,4.03
2019-02-10T13:56:51.247Z,3.73
2019-02-10T13:59:20.851Z,3.20
2019-02-10T14:01:50.026Z,3.63
2019-02-10T14:04:21.054Z,3.50
2019-02-10T14:06:50.287Z,3.77
2019-02-10T14:09:19.614Z,3.60
2019-02-10T14:11:49.377Z,4.03
2019-02-10T14:14:18.842Z,3.43
2019-02-10T14:16:48.243Z,3.63
2019-02-10T14:19:17.468Z,3.43
2019-02-10T14:21:46.787Z,3.63
2019-02-10T14:24:16.014Z,3.70
2019-02-10T14:26:45.258Z,3.37
2019-02-10T14:29:14.562Z,3.20
2019-02-10T14:31:43.861Z,2.90
2019-02-10T14:34:13.049Z,2.90
2019-02-10T14:36:42.289Z,3.20
2019-02-10T14:39:11.546Z,2.97
2019-02-10T14:41:41.095Z,3.40
2019-02-10T14:44:10.355Z,3.13
2019-02-10T14:46:39.624Z,3.00
2019-02-10T14:49:08.922Z,2.70
2019-02-10T14:51:38.143Z,3.73
2019-02-10T14:54:07.360Z,2.73
2019-02-10T14:56:36.610Z,3.27
2019-02-10T14:59:27.535Z,2.97
2019-02-10T15:01:56.904Z,2.87
2019-02-10T15:04:27.032Z,3.00
2019-02-10T15:07:12.954Z,3.00
2019-02-10T15:09:42.209Z,1.50
2019-02-10T15:12:11.484Z,2.30
2019-02-10T15:14:40.786Z,2.80
2019-02-10T15:17:10.023Z,2.43
2019-02-10T15:19:39.259Z,2.57
2019-02-10T15:22:08.516Z,2.20
2019-02-10T15:24:37.764Z,2.50
2019-02-10T15:27:06.947Z,2.27
2019-02-10T15:29:36.292Z,2.20
2019-02-10T15:32:05.493Z,2.50
2019-02-10T15:34:34.832Z,2.37
2019-02-10T15:37:04.491Z,2.40
2019-02-10T15:39:33.753Z,2.20
2019-02-10T15:42:09.265Z,2.17
2019-02-10T15:44:33.869Z,2.10
2019-02-10T15:47:03.162Z,2.47
2019-02-10T15:49:32.976Z,2.20
2019-02-10T15:52:02.221Z,2.03
2019-02-10T15:54:31.596Z,2.43
2019-02-10T15:57:00.892Z,1.83
2019-02-10T15:59:30.720Z,1.93
2019-02-10T16:01:59.971Z,2.10
2019-02-10T16:04:29.415Z,4.07
2019-02-10T16:06:58.840Z,2.87
2019-02-10T16:09:28.147Z,3.10
2019-02-10T16:11:57.435Z,2.83
2019-02-10T16:14:26.640Z,3.00
2019-02-10T16:16:55.963Z,2.57
2019-02-10T16:19:25.471Z,3.00
2019-02-10T16:21:54.716Z,2.87
2019-02-10T16:24:23.905Z,2.90
2019-02-10T16:26:53.338Z,3.33
2019-02-10T16:29:24.065Z,2.33
2019-02-10T16:31:54.319Z,2.50
2019-02-10T16:34:25.023Z,2.43
2019-02-10T16:36:55.119Z,2.23
2019-02-10T16:39:24.310Z,2.40
2019-02-10T16:41:53.597Z,3.23
2019-02-10T16:44:22.992Z,3.37
2019-02-10T16:46:52.191Z,2.93
2019-02-10T16:49:21.401Z,2.90
2019-02-10T16:51:50.969Z,3.47
2019-02-10T16:54:20.444Z,2.20
2019-02-10T16:56:49.715Z,2.37
2019-02-10T16:59:18.945Z,2.50
2019-02-10T17:01:48.161Z,2.60
2019-02-10T17:04:17.381Z,2.77
2019-02-10T17:06:46.846Z,2.63
2019-02-10T17:09:16.026Z,2.23
2019-02-10T17:11:45.185Z,2.40
2019-02-10T17:14:14.433Z,2.30
2019-02-10T17:16:43.594Z,2.50
2019-02-10T17:19:12.794Z,2.53
2019-02-10T17:21:41.998Z,4.13
2019-02-10T17:24:11.514Z,3.13
2019-02-10T17:26:44.447Z,2.60
2019-02-10T17:29:13.649Z,3.73
2019-02-10T17:31:42.830Z,3.60
2019-02-10T17:34:12.067Z,3.97
2019-02-10T17:36:41.253Z,4.67
2019-02-10T17:39:15.362Z,4.57
2019-02-10T17:41:47.573Z,5.10
2019-02-10T17:44:16.957Z,3.93
2019-02-10T17:46:46.167Z,3.50
2019-02-10T17:49:15.398Z,4.00
2019-02-10T17:51:44.560Z,4.83
2019-02-10T17:54:13.718Z,3.90
2019-02-10T17:56:42.973Z,4.17
2019-02-10T17:59:12.147Z,4.50
2019-02-10T18:01:41.401Z,5.90
2019-02-10T18:04:10.602Z,4.77
2019-02-10T18:06:39.759Z,4.40
2019-02-10T18:09:09.005Z,3.83
2019-02-10T18:11:38.182Z,4.03
2019-02-10T18:14:25.402Z,4.53
2019-02-10T18:17:02.027Z,4.10
2019-02-10T18:19:50.155Z,4.30
2019-02-10T18:22:27.763Z,3.70
2019-02-10T18:25:08.953Z,3.80
2019-02-10T18:28:06.118Z,3.73
2019-02-10T18:31:03.693Z,3.60
2019-02-10T18:33:48.109Z,3.73
2019-02-10T18:36:43.348Z,3.20
2019-02-10T18:39:37.612Z,3.77
2019-02-10T18:42:29.449Z,3.90
2019-02-10T18:45:16.741Z,3.50
2019-02-10T18:47:51.521Z,3.23
2019-02-10T18:50:42.967Z,3.30
2019-02-10T18:53:43.696Z,3.40
2019-02-10T18:56:27.778Z,3.67
2019-02-10T18:59:34.801Z,3.43
2019-02-10T19:02:21.086Z,2.90
2019-02-10T19:05:18.459Z,3.10
2019-02-10T19:08:02.861Z,3.37
2019-02-10T19:11:00.132Z,3.23
2019-02-10T19:13:51.046Z,3.10
2019-02-10T19:16:41.890Z,3.00
2019-02-10T19:19:30.057Z,3.43
2019-02-10T19:22:27.468Z,2.97
2019-02-10T19:25:14.137Z,3.47
2019-02-10T19:28:10.637Z,3.00
2019-02-10T19:30:58.728Z,3.10
2019-02-10T19:33:45.305Z,3.00
2019-02-10T19:36:51.906Z,2.93
2019-02-10T19:39:26.898Z,2.60
2019-02-10T19:42:15.029Z,3.10
2019-02-10T19:44:56.685Z,2.67
2019-02-10T19:47:36.255Z,2.90
2019-02-10T19:50:19.890Z,2.73
2019-02-10T19:52:57.580Z,2.57
2019-02-10T19:55:44.383Z,2.90
2019-02-10T19:58:47.633Z,3.40
2019-02-10T20:01:46.716Z,3.30
2019-02-10T20:04:24.082Z,3.40
2019-02-10T20:07:18.526Z,3.53
2019-02-10T20:10:09.646Z,4.67
2019-02-10T20:12:50.936Z,5.30
2019-02-10T20:15:41.869Z,4.07
2019-02-10T20:18:29.186Z,3.60
2019-02-10T20:21:10.654Z,2.93
2019-02-10T20:23:46.771Z,3.83
2019-02-10T20:26:35.338Z,3.27
2019-02-10T20:29:32.773Z,3.40
2019-02-10T20:32:26.790Z,3.57
2019-02-10T20:35:15.102Z,2.70
2019-02-10T20:38:15.319Z,3.10
2019-02-10T20:40:59.026Z,3.53
2019-02-10T20:43:38.150Z,3.30
2019-02-10T20:46:28.334Z,2.83
2019-02-10T20:49:17.059Z,2.73
2019-02-10T20:52:03.498Z,3.03
2019-02-10T20:55:00.946Z,2.77
2019-02-10T20:58:04.198Z,2.60
2019-02-10T21:01:07.725Z,2.90
2019-02-10T21:03:55.890Z,2.40
2019-02-10T21:06:44.094Z,3.00
2019-02-10T21:09:50.265Z,2.60
2019-02-10T21:12:44.860Z,2.17
2019-02-10T21:15:24.052Z,2.07
2019-02-10T21:18:08.876Z,2.43
2019-02-10T21:20:52.109Z,2.07
2019-02-10T21:23:30.834Z,2.60
2019-02-10T21:26:07.556Z,1.93
2019-02-10T21:29:01.849Z,2.17
2019-02-10T21:31:59.369Z,2.17
2019-02-10T21:34:53.147Z,2.37
2019-02-10T21:37:43.097Z,1.97
2019-02-10T21:40:33.853Z,1.90
2019-02-10T21:43:18.723Z,2.00
2019-02-10T21:46:06.915Z,1.13
2019-02-10T21:48:47.238Z,1.50
2019-02-10T21:51:16.452Z,1.83
2019-02-10T21:53:45.676Z,1.60
2019-02-10T21:56:14.975Z,5.90
2019-02-10T21:58:44.169Z,5.40
2019-02-10T22:01:13.368Z,4.73
2019-02-10T22:03:42.557Z,3.33
2019-02-10T22:06:11.786Z,3.40
2019-02-10T22:08:41.276Z,2.70
2019-02-10T22:11:10.484Z,2.70
2019-02-10T22:13:48.522Z,2.93
2019-02-10T22:16:17.750Z,2.80
2019-02-10T22:18:46.989Z,2.50
2019-02-10T22:21:16.182Z,2.43
2019-02-10T22:23:45.393Z,2.40
2019-02-10T22:26:14.566Z,2.10
2019-02-10T22:28:43.770Z,2.00
2019-02-10T22:31:18.632Z,2.30
2019-02-10T22:33:51.178Z,1.73
2019-02-10T22:36:14.658Z,2.23
2019-02-10T22:38:43.945Z,1.70
2019-02-10T22:41:13.122Z,1.93
2019-02-10T22:43:42.257Z,2.20
2019-02-10T22:46:11.474Z,1.90
2019-02-10T22:48:40.642Z,1.93
2019-02-10T22:51:10.222Z,2.43
2019-02-10T22:53:39.610Z,2.00
2019-02-10T22:56:08.700Z,2.63
2019-02-10T22:58:37.890Z,1.90
2019-02-10T23:01:07.299Z,1.97
2019-02-10T23:03:36.472Z,2.07
2019-02-10T23:06:05.659Z,2.00
2019-02-10T23:08:34.770Z,1.70
2019-02-10T23:11:03.969Z,1.60
2019-02-10T23:13:33.171Z,1.77
2019-02-10T23:16:02.395Z,1.53
2019-02-10T23:18:31.596Z,1.47
2019-02-10T23:21:00.776Z,1.70
2019-02-10T23:23:29.979Z,2.20
2019-02-10T23:25:59.171Z,1.93
2019-02-10T23:28:28.371Z,2.10
2019-02-10T23:30:57.908Z,1.90
2019-02-10T23:33:27.091Z,2.20
2019-02-10T23:35:56.200Z,1.70
2019-02-10T23:38:25.393Z,1.80
2019-02-10T23:40:55.060Z,1.50
2019-02-10T23:43:24.258Z,1.83
2019-02-10T23:45:53.904Z,1.57
2019-02-10T23:48:23.103Z,1.43
2019-02-10T23:50:52.304Z,1.60
2019-02-10T23:53:21.522Z,1.80
2019-02-10T23:55:50.642Z,1.53
2019-02-10T23:58:19.952Z,1.47
